< < Back
Terminal Aerodrome Forecast


Current Version              Previous Versions:   1  2  3  4  5  6  7  8  9  

Terminal Aerodrome Forecast

384
FTUS42 KGSP 301136
TAFAND
TAF
KAND 301136Z 3012/3112 17006KT P6SM SCT060 BKN250
     FM310300 16006KT P6SM SCT045
     FM310800 00000KT P6SM SCT045
     FM311000 00000KT 6SM BR BKN028=

Latest METAR

427
SAUS70 KWBC 301400 RRE
MTRAND
METAR KAND 301356Z AUTO 12003KT 10SM OVC016 23/19 A3022 RMK AO2 SLP225
T02280189


USA.gov is the U.S. government's official web portal to all federal, state and local government web resources and services.